createdAt,value
2023-10-20T00:00:00.000Z,51.51
2023-10-20T00:15:00.000Z,51.05
2023-10-20T00:30:00.000Z,50.61
2023-10-20T00:45:00.000Z,48.56
2023-10-20T01:00:00.000Z,48.05
2023-10-20T01:15:00.000Z,47.24
2023-10-20T01:30:00.000Z,46.54
2023-10-20T01:45:00.000Z,47.86
2023-10-20T02:00:00.000Z,49.45
2023-10-20T02:15:00.000Z,47.29
2023-10-20T02:30:00.000Z,48.6
2023-10-20T02:45:00.000Z,51.31
2023-10-20T03:00:00.000Z,52.45
2023-10-20T03:15:00.000Z,47.55
2023-10-20T03:30:00.000Z,47.45
2023-10-20T03:45:00.000Z,47.33
2023-10-20T04:00:00.000Z,47.6
2023-10-20T04:15:00.000Z,47.65
2023-10-20T04:30:00.000Z,46.88
2023-10-20T04:45:00.000Z,46.95
2023-10-20T05:00:00.000Z,47.06
2023-10-20T05:15:00.000Z,46.86
2023-10-20T05:30:00.000Z,48.12
2023-10-20T05:45:00.000Z,47.16
2023-10-20T06:00:00.000Z,46.02
2023-10-20T06:15:00.000Z,46.12
2023-10-20T06:30:00.000Z,47.31
2023-10-20T06:45:00.000Z,47.38
2023-10-20T07:00:00.000Z,47.16
2023-10-20T07:15:00.000Z,45.8
2023-10-20T07:30:00.000Z,44.01
2023-10-20T07:45:00.000Z,44.58
2023-10-20T08:00:00.000Z,41.11
2023-10-20T08:15:00.000Z,40.72
2023-10-20T08:30:00.000Z,42.81
2023-10-20T08:45:00.000Z,41.52
2023-10-20T09:00:00.000Z,40.45
2023-10-20T09:15:00.000Z,38.58
2023-10-20T09:30:00.000Z,36.53
2023-10-20T09:45:00.000Z,37.86
2023-10-20T10:00:00.000Z,36.01
2023-10-20T10:15:00.000Z,35.64
2023-10-20T10:30:00.000Z,34.71
2023-10-20T10:45:00.000Z,33.46
2023-10-20T11:00:00.000Z,33.4
2023-10-20T11:15:00.000Z,32.21
2023-10-20T11:30:00.000Z,36.91
2023-10-20T11:45:00.000Z,25.81
2023-10-20T12:00:00.000Z,24.26
2023-10-20T12:15:00.000Z,23.39
2023-10-20T12:30:00.000Z,27.12
2023-10-20T12:45:00.000Z,25.41
2023-10-20T13:00:00.000Z,24.27
2023-10-20T13:15:00.000Z,23.52
2023-10-20T13:30:00.000Z,20.22
2023-10-20T13:45:00.000Z,20.51
2023-10-20T14:00:00.000Z,23.56
2023-10-20T14:15:00.000Z,28.65
2023-10-20T14:30:00.000Z,21.48
2023-10-20T14:45:00.000Z,20.68
2023-10-20T15:00:00.000Z,18.69
2023-10-20T15:15:00.000Z,16.82
2023-10-20T15:30:00.000Z,13.59
2023-10-20T15:45:00.000Z,10.61
2023-10-20T16:00:00.000Z,9.76
2023-10-20T16:15:00.000Z,8.89
2023-10-20T16:30:00.000Z,9.96
2023-10-20T16:45:00.000Z,8.62
2023-10-20T17:00:00.000Z,12.94
2023-10-20T17:15:00.000Z,9.65
2023-10-20T17:30:00.000Z,11.27
2023-10-20T17:45:00.000Z,12.59
2023-10-20T18:00:00.000Z,12.52
2023-10-20T18:15:00.000Z,11.29
2023-10-20T18:30:00.000Z,10.92
2023-10-20T18:45:00.000Z,7.74
2023-10-20T19:00:00.000Z,8.96
2023-10-20T19:15:00.000Z,5.96
2023-10-20T19:30:00.000Z,6.49
2023-10-20T19:45:00.000Z,8.44
2023-10-20T20:00:00.000Z,6.58
2023-10-20T20:15:00.000Z,8.71
2023-10-20T20:30:00.000Z,7.27
2023-10-20T20:45:00.000Z,6.81
2023-10-20T21:00:00.000Z,5.69
2023-10-20T21:15:00.000Z,6.66
2023-10-20T21:30:00.000Z,7
2023-10-20T21:45:00.000Z,7.22
2023-10-20T22:00:00.000Z,6.46
2023-10-20T22:15:00.000Z,5.84
2023-10-20T22:30:00.000Z,5.07
2023-10-20T22:45:00.000Z,5.34
2023-10-20T23:00:00.000Z,5.35
2023-10-20T23:15:00.000Z,4.75
2023-10-20T23:30:00.000Z,4.68
2023-10-20T23:45:00.000Z,4.89
